createdAt,value
2023-04-23T00:01:20.699Z,7.00
2023-04-23T00:03:51.375Z,7.00
2023-04-23T00:06:22.498Z,7.00
2023-04-23T00:08:54.011Z,6.90
2023-04-23T00:11:22.819Z,7.00
2023-04-23T00:13:51.439Z,6.90
2023-04-23T00:16:21.421Z,6.90
2023-04-23T00:18:51.221Z,6.80
2023-04-23T00:21:19.552Z,6.70
2023-04-23T00:23:47.974Z,6.70
2023-04-23T00:26:18.497Z,6.70
2023-04-23T00:28:46.691Z,6.60
2023-04-23T00:31:15.030Z,6.50
2023-04-23T00:33:43.349Z,6.50
2023-04-23T00:36:12.965Z,6.50
2023-04-23T00:38:41.162Z,6.60
2023-04-23T00:41:09.928Z,6.50
2023-04-23T00:43:38.608Z,6.40
2023-04-23T00:46:07.386Z,6.30
2023-04-23T00:48:36.304Z,6.30
2023-04-23T00:51:06.009Z,6.30
2023-04-23T00:53:35.541Z,6.20
2023-04-23T00:56:07.014Z,6.20
2023-04-23T00:58:35.646Z,6.10
2023-04-23T01:01:04.787Z,6.10
2023-04-23T01:03:33.828Z,6.00
2023-04-23T01:06:02.417Z,6.00
2023-04-23T01:08:32.617Z,6.00
2023-04-23T01:11:03.878Z,5.90
2023-04-23T01:13:32.282Z,5.90
2023-04-23T01:16:00.811Z,5.90
2023-04-23T01:18:29.792Z,5.90
2023-04-23T01:20:58.028Z,5.80
2023-04-23T01:23:28.251Z,5.80
2023-04-23T01:25:56.810Z,5.80
2023-04-23T01:28:25.323Z,5.70
2023-04-23T01:30:53.957Z,5.70
2023-04-23T01:33:22.302Z,5.70
2023-04-23T01:35:51.357Z,5.60
2023-04-23T01:38:20.930Z,5.60
2023-04-23T01:40:50.581Z,5.60
2023-04-23T01:43:18.929Z,5.50
2023-04-23T01:45:47.270Z,5.50
2023-04-23T01:48:15.976Z,5.50
2023-04-23T01:50:44.852Z,5.50
2023-04-23T01:53:13.046Z,5.40
2023-04-23T01:55:42.248Z,5.40
2023-04-23T01:58:11.877Z,5.40
2023-04-23T02:00:40.142Z,5.40
2023-04-23T02:03:08.520Z,5.40
2023-04-23T02:05:37.849Z,5.30
2023-04-23T02:08:06.171Z,5.30
2023-04-23T02:10:34.566Z,5.30
2023-04-23T02:13:03.448Z,5.30
2023-04-23T02:15:34.154Z,5.30
2023-04-23T02:18:02.394Z,5.30
2023-04-23T02:20:31.165Z,5.30
2023-04-23T02:22:59.517Z,5.30
2023-04-23T02:25:27.877Z,5.30
2023-04-23T02:27:57.665Z,5.30
2023-04-23T02:30:26.159Z,5.30
2023-04-23T02:32:55.841Z,5.20
2023-04-23T02:35:24.633Z,5.20
2023-04-23T02:37:54.228Z,5.20
2023-04-23T02:40:22.908Z,5.10
2023-04-23T02:42:51.471Z,5.20
2023-04-23T02:45:19.654Z,5.10
2023-04-23T02:47:48.119Z,5.10
2023-04-23T02:50:18.068Z,5.10
2023-04-23T02:52:47.926Z,5.10
2023-04-23T02:55:16.347Z,5.10
2023-04-23T02:57:45.549Z,5.20
2023-04-23T03:00:14.972Z,5.20
2023-04-23T03:02:44.815Z,5.20
2023-04-23T03:05:13.291Z,5.20
2023-04-23T03:07:43.806Z,5.20
2023-04-23T03:10:12.474Z,5.10
2023-04-23T03:12:40.746Z,5.10
2023-04-23T03:15:10.329Z,5.10
2023-04-23T03:17:39.579Z,5.00
2023-04-23T03:20:11.597Z,5.00
2023-04-23T03:22:40.775Z,5.00
2023-04-23T03:25:11.369Z,5.00
2023-04-23T03:27:40.859Z,5.00
2023-04-23T03:30:10.770Z,4.90
2023-04-23T03:32:40.458Z,4.90
2023-04-23T03:35:09.945Z,4.90
2023-04-23T03:37:41.389Z,4.90
2023-04-23T03:40:11.616Z,4.90
2023-04-23T03:42:42.244Z,5.00
2023-04-23T03:45:14.297Z,5.00
2023-04-23T03:47:42.834Z,5.10
2023-04-23T03:50:13.642Z,5.20
2023-04-23T03:52:44.877Z,5.20
2023-04-23T03:55:21.981Z,5.20
2023-04-23T03:57:50.370Z,5.20
2023-04-23T04:00:24.765Z,5.30
2023-04-23T04:02:53.543Z,5.30
2023-04-23T04:05:24.393Z,5.30
2023-04-23T04:07:55.805Z,5.30
2023-04-23T04:10:27.191Z,5.40
2023-04-23T04:12:55.364Z,5.50
2023-04-23T04:15:23.955Z,5.60
2023-04-23T04:17:52.205Z,5.70
2023-04-23T04:20:20.643Z,5.80
2023-04-23T04:22:48.988Z,5.90
2023-04-23T04:25:17.275Z,6.00
2023-04-23T04:27:48.070Z,6.40
2023-04-23T04:30:18.235Z,6.60
2023-04-23T04:32:47.457Z,6.90
2023-04-23T04:35:15.908Z,7.10
2023-04-23T04:37:45.017Z,7.10
2023-04-23T04:40:15.233Z,7.10
2023-04-23T04:42:43.553Z,7.10
2023-04-23T04:45:14.645Z,7.10
2023-04-23T04:47:42.923Z,7.00
2023-04-23T04:50:12.321Z,6.90
2023-04-23T04:52:40.577Z,7.00
2023-04-23T04:55:10.175Z,7.20
2023-04-23T04:57:38.353Z,7.20
2023-04-23T05:00:24.454Z,7.50
2023-04-23T05:02:53.214Z,7.40
2023-04-23T05:05:22.917Z,7.50
2023-04-23T05:07:51.569Z,7.60
2023-04-23T05:10:19.847Z,7.60
2023-04-23T05:12:48.289Z,7.80
2023-04-23T05:15:16.607Z,8.00
2023-04-23T05:17:47.292Z,8.10
2023-04-23T05:20:15.562Z,8.30
2023-04-23T05:22:44.355Z,8.80
2023-04-23T05:25:14.454Z,9.00
2023-04-23T05:27:43.161Z,9.30
2023-04-23T05:30:12.334Z,9.30
2023-04-23T05:32:40.757Z,9.40
2023-04-23T05:35:11.056Z,9.70
2023-04-23T05:37:39.330Z,10.00
2023-04-23T05:40:08.562Z,10.40
2023-04-23T05:42:37.620Z,10.80
2023-04-23T05:45:08.755Z,11.10
2023-04-23T05:47:37.840Z,11.30
2023-04-23T05:50:07.283Z,11.80
2023-04-23T05:52:37.575Z,12.50
2023-04-23T05:55:06.901Z,13.60
2023-04-23T05:57:35.077Z,14.50
2023-04-23T06:00:03.838Z,15.30
2023-04-23T06:02:40.605Z,16.20
2023-04-23T06:05:09.824Z,16.80
2023-04-23T06:07:41.193Z,17.20
2023-04-23T06:10:11.000Z,17.80
2023-04-23T06:12:39.943Z,18.00
2023-04-23T06:15:09.951Z,18.40
2023-04-23T06:17:38.440Z,18.30
2023-04-23T06:20:09.076Z,18.80
2023-04-23T06:22:39.390Z,19.10
2023-04-23T06:25:10.298Z,19.70
2023-04-23T06:27:38.657Z,20.20
2023-04-23T06:30:14.374Z,20.60
2023-04-23T06:32:42.687Z,20.80
2023-04-23T06:35:11.160Z,21.10
2023-04-23T06:37:39.338Z,21.50
2023-04-23T06:40:09.937Z,22.20
2023-04-23T06:42:38.225Z,22.40
2023-04-23T06:45:39.416Z,22.00
2023-04-23T06:48:08.126Z,22.50
2023-04-23T06:50:36.379Z,22.60
2023-04-23T06:53:04.774Z,22.60
2023-04-23T06:55:34.745Z,23.00
2023-04-23T06:58:03.572Z,23.40
2023-04-23T07:00:31.842Z,23.70
2023-04-23T07:03:00.935Z,24.10
2023-04-23T07:05:29.325Z,24.00
2023-04-23T07:07:57.491Z,24.30
2023-04-23T07:10:26.451Z,24.20
2023-04-23T07:12:56.647Z,23.70
2023-04-23T07:15:25.838Z,24.20
2023-04-23T07:17:54.080Z,23.60
2023-04-23T07:20:22.338Z,23.50
2023-04-23T07:22:50.700Z,24.20
2023-04-23T07:25:19.386Z,24.10
2023-04-23T07:27:47.562Z,24.00
2023-04-23T07:30:17.835Z,23.80
2023-04-23T07:32:46.177Z,23.30
2023-04-23T07:35:14.445Z,23.20
2023-04-23T07:37:44.073Z,23.80
2023-04-23T07:40:13.221Z,23.80
2023-04-23T07:42:41.530Z,23.90
2023-04-23T07:45:11.513Z,24.10
2023-04-23T07:47:41.258Z,24.00
2023-04-23T07:50:10.552Z,23.40
2023-04-23T07:52:38.995Z,23.90
2023-04-23T07:55:08.251Z,24.10
2023-04-23T07:57:36.623Z,23.70
2023-04-23T08:00:05.609Z,24.40
2023-04-23T08:02:41.588Z,24.90
2023-04-23T08:05:12.577Z,25.30
2023-04-23T08:07:41.090Z,24.00
2023-04-23T08:10:10.182Z,23.30
2023-04-23T08:12:38.457Z,23.50
2023-04-23T08:15:07.829Z,23.30
2023-04-23T08:17:41.907Z,23.50
2023-04-23T08:20:10.868Z,23.20
2023-04-23T08:22:39.070Z,23.80
2023-04-23T08:25:09.480Z,23.60
2023-04-23T08:27:37.955Z,23.80
2023-04-23T08:30:08.717Z,23.90
2023-04-23T08:32:37.291Z,23.70
2023-04-23T08:35:08.072Z,24.20
2023-04-23T08:37:36.543Z,23.70
2023-04-23T08:40:06.208Z,23.20
2023-04-23T08:42:41.338Z,23.60
2023-04-23T08:45:10.419Z,23.80
2023-04-23T08:47:43.202Z,23.30
2023-04-23T08:50:15.200Z,23.70
2023-04-23T08:52:48.591Z,23.60
2023-04-23T08:55:18.935Z,24.40
2023-04-23T08:57:48.316Z,24.40
2023-04-23T09:00:18.999Z,24.10
2023-04-23T09:02:49.564Z,24.40
2023-04-23T09:05:22.916Z,24.20
2023-04-23T09:07:51.133Z,23.90
2023-04-23T09:10:19.596Z,23.50
2023-04-23T09:12:48.406Z,23.80
2023-04-23T09:15:16.780Z,23.30
2023-04-23T09:17:47.186Z,23.40
2023-04-23T09:20:16.701Z,23.40
2023-04-23T09:22:48.565Z,23.40
2023-04-23T09:25:18.487Z,23.60
2023-04-23T09:27:47.614Z,23.40
2023-04-23T09:30:17.306Z,23.50
2023-04-23T09:32:47.469Z,22.90
2023-04-23T09:35:16.744Z,22.50
2023-04-23T09:37:48.846Z,22.50
2023-04-23T09:40:20.365Z,22.50
2023-04-23T09:42:50.673Z,22.10
2023-04-23T09:45:19.374Z,22.10
2023-04-23T09:47:52.804Z,22.00
2023-04-23T09:50:33.927Z,22.00
2023-04-23T09:53:04.230Z,22.30
2023-04-23T09:55:37.504Z,22.50
2023-04-23T09:58:06.685Z,22.40
2023-04-23T10:00:36.446Z,22.50
2023-04-23T10:03:06.855Z,22.60
2023-04-23T10:05:59.703Z,22.30
2023-04-23T10:08:29.421Z,22.60
2023-04-23T10:11:06.581Z,22.60
2023-04-23T10:13:46.124Z,22.60
2023-04-23T10:16:22.350Z,22.50
2023-04-23T10:18:55.526Z,22.70
2023-04-23T10:21:32.155Z,22.90
2023-04-23T10:24:12.105Z,22.90
2023-04-23T10:26:44.145Z,22.90
2023-04-23T10:29:16.683Z,22.80
2023-04-23T10:31:46.827Z,23.00
2023-04-23T10:34:16.785Z,22.90
2023-04-23T10:36:44.993Z,22.60
2023-04-23T10:39:27.286Z,22.80
2023-04-23T10:41:58.614Z,23.20
2023-04-23T10:44:56.758Z,23.30
2023-04-23T10:47:22.935Z,23.50
2023-04-23T10:49:51.749Z,23.70
2023-04-23T10:52:24.384Z,23.90
2023-04-23T10:55:00.938Z,24.20
2023-04-23T10:57:29.232Z,24.40
2023-04-23T10:59:59.013Z,24.30
2023-04-23T11:02:43.890Z,24.30
2023-04-23T11:05:12.223Z,24.60
2023-04-23T11:07:40.469Z,24.60
2023-04-23T11:10:15.291Z,24.50
2023-04-23T11:12:45.339Z,24.40
2023-04-23T11:15:15.181Z,24.10
2023-04-23T11:18:02.851Z,23.60
2023-04-23T11:20:31.284Z,24.00
2023-04-23T11:22:59.535Z,24.20
2023-04-23T11:25:30.591Z,24.10
2023-04-23T11:27:59.624Z,23.80
2023-04-23T11:30:29.452Z,23.80
2023-04-23T11:32:59.964Z,23.70
2023-04-23T11:35:30.671Z,23.50
2023-04-23T11:37:59.152Z,23.30
2023-04-23T11:40:31.125Z,23.40
2023-04-23T11:42:59.516Z,23.10
2023-04-23T11:45:29.330Z,22.70
2023-04-23T11:47:59.383Z,22.70
2023-04-23T11:50:29.796Z,22.70
2023-04-23T11:52:58.420Z,22.90
2023-04-23T11:55:30.091Z,22.60
2023-04-23T11:57:58.845Z,22.70
2023-04-23T12:00:28.392Z,22.70
2023-04-23T12:02:58.163Z,22.90
2023-04-23T12:05:30.625Z,22.70
2023-04-23T12:08:09.095Z,22.90
2023-04-23T12:10:46.332Z,22.60
2023-04-23T12:13:18.738Z,22.50
2023-04-23T12:15:48.497Z,22.60
2023-04-23T12:18:17.096Z,22.60
2023-04-23T12:20:45.386Z,22.60
2023-04-23T12:23:13.926Z,22.50
2023-04-23T12:25:43.021Z,22.50
2023-04-23T12:28:13.600Z,22.40
2023-04-23T12:30:45.576Z,22.50
2023-04-23T12:33:14.050Z,22.60
2023-04-23T12:35:43.002Z,22.40
2023-04-23T12:38:23.777Z,22.50
2023-04-23T12:40:52.181Z,22.60
2023-04-23T12:43:21.865Z,22.50
2023-04-23T12:45:50.409Z,22.50
2023-04-23T12:48:18.763Z,22.20
2023-04-23T12:50:47.559Z,22.10
2023-04-23T12:53:16.542Z,22.00
2023-04-23T12:55:46.018Z,22.10
2023-04-23T12:58:14.397Z,22.30
2023-04-23T13:00:44.346Z,22.40
2023-04-23T13:03:14.226Z,22.40
2023-04-23T13:05:42.762Z,22.40
2023-04-23T13:08:10.948Z,22.70
2023-04-23T13:10:39.104Z,22.70
2023-04-23T13:13:07.406Z,22.70
2023-04-23T13:15:35.662Z,22.40
2023-04-23T13:18:05.578Z,22.50
2023-04-23T13:20:33.827Z,22.40
2023-04-23T13:23:03.113Z,22.40
2023-04-23T13:25:31.349Z,22.50
2023-04-23T13:27:59.605Z,22.50
2023-04-23T13:30:27.912Z,22.20
2023-04-23T13:32:57.734Z,22.30
2023-04-23T13:35:27.501Z,22.40
2023-04-23T13:37:55.737Z,22.20
2023-04-23T13:40:23.886Z,22.30
2023-04-23T13:42:53.275Z,22.20
2023-04-23T13:45:21.637Z,22.10
2023-04-23T13:47:49.865Z,22.30
2023-04-23T13:50:18.142Z,22.40
2023-04-23T13:52:49.385Z,22.40
2023-04-23T13:55:17.948Z,22.40
2023-04-23T13:57:46.288Z,22.30
2023-04-23T14:00:15.388Z,22.30
2023-04-23T14:02:43.660Z,22.20
2023-04-23T14:05:12.199Z,22.10
2023-04-23T14:07:40.458Z,22.10
2023-04-23T14:10:10.972Z,22.00
2023-04-23T14:12:39.682Z,22.10
2023-04-23T14:15:09.062Z,22.10
2023-04-23T14:17:39.375Z,22.20
2023-04-23T14:20:09.342Z,22.20
2023-04-23T14:22:38.020Z,22.20
2023-04-23T14:25:13.148Z,22.20
2023-04-23T14:27:45.711Z,22.20
2023-04-23T14:30:18.282Z,22.20
2023-04-23T14:32:49.454Z,22.10
2023-04-23T14:35:24.495Z,22.00
2023-04-23T14:37:57.704Z,22.10
2023-04-23T14:40:27.228Z,22.00
2023-04-23T14:42:59.232Z,22.00
2023-04-23T14:45:33.187Z,21.90
2023-04-23T14:48:01.740Z,22.00
2023-04-23T14:50:29.982Z,22.00
2023-04-23T14:52:59.024Z,22.00
2023-04-23T14:55:28.817Z,21.90
2023-04-23T14:57:57.065Z,21.90
2023-04-23T15:00:25.397Z,21.80
2023-04-23T15:02:53.733Z,21.90
2023-04-23T15:05:22.234Z,21.90
2023-04-23T15:07:51.543Z,21.80
2023-04-23T15:10:22.470Z,21.80
2023-04-23T15:12:57.999Z,21.80
2023-04-23T15:15:43.144Z,21.80
2023-04-23T15:18:13.031Z,21.70
2023-04-23T15:20:41.298Z,21.70
2023-04-23T15:23:10.083Z,21.60
2023-04-23T15:25:39.388Z,21.60
2023-04-23T15:28:09.576Z,21.50
2023-04-23T15:30:39.759Z,21.50
2023-04-23T15:33:08.116Z,21.50
2023-04-23T15:35:36.382Z,21.60
2023-04-23T15:38:04.723Z,21.60
2023-04-23T15:40:42.203Z,21.50
2023-04-23T15:43:14.425Z,21.50
2023-04-23T15:45:43.742Z,21.50
2023-04-23T15:48:11.967Z,21.40
2023-04-23T15:50:40.228Z,21.40
2023-04-23T15:53:08.645Z,21.40
2023-04-23T15:55:38.970Z,21.30
2023-04-23T15:58:07.786Z,21.30
2023-04-23T16:00:37.603Z,21.30
2023-04-23T16:03:06.721Z,21.30
2023-04-23T16:05:36.666Z,21.20
2023-04-23T16:08:05.163Z,21.20
2023-04-23T16:10:34.689Z,21.20
2023-04-23T16:13:03.820Z,21.00
2023-04-23T16:15:32.154Z,21.00
2023-04-23T16:18:01.808Z,20.90
2023-04-23T16:20:30.099Z,20.80
2023-04-23T16:22:58.282Z,20.90
2023-04-23T16:25:26.553Z,20.80
2023-04-23T16:27:55.241Z,20.80
2023-04-23T16:30:23.510Z,20.80
2023-04-23T16:32:52.374Z,20.80
2023-04-23T16:35:22.391Z,20.80
2023-04-23T16:37:50.625Z,20.70
2023-04-23T16:40:19.372Z,20.60
2023-04-23T16:42:49.762Z,20.60
2023-04-23T16:45:22.938Z,20.50
2023-04-23T16:47:52.366Z,20.50
2023-04-23T16:50:23.183Z,20.40
2023-04-23T16:52:52.077Z,20.30
2023-04-23T16:55:20.796Z,20.20
2023-04-23T16:57:49.202Z,20.10
2023-04-23T17:00:18.154Z,20.00
2023-04-23T17:02:46.442Z,19.90
2023-04-23T17:05:15.613Z,19.90
2023-04-23T17:07:46.486Z,19.80
2023-04-23T17:10:15.579Z,19.70
2023-04-23T17:12:43.891Z,19.50
2023-04-23T17:15:12.929Z,19.40
2023-04-23T17:17:41.179Z,19.30
2023-04-23T17:20:10.208Z,19.30
2023-04-23T17:22:38.597Z,19.10
2023-04-23T17:25:09.945Z,18.90
2023-04-23T17:27:38.228Z,18.80
2023-04-23T17:30:08.745Z,18.60
2023-04-23T17:32:37.130Z,18.50
2023-04-23T17:35:10.656Z,18.20
2023-04-23T17:37:39.246Z,18.00
2023-04-23T17:40:10.926Z,17.90
2023-04-23T17:42:39.835Z,17.70
2023-04-23T17:45:09.110Z,17.60
2023-04-23T17:47:37.646Z,17.50
2023-04-23T17:50:09.534Z,17.30
2023-04-23T17:52:37.778Z,17.10
2023-04-23T17:55:06.621Z,17.00
2023-04-23T17:57:36.551Z,16.80
2023-04-23T18:00:09.672Z,16.70
2023-04-23T18:02:41.695Z,16.60
2023-04-23T18:05:11.010Z,16.50
2023-04-23T18:07:40.181Z,16.40
2023-04-23T18:10:09.912Z,16.20
2023-04-23T18:12:40.145Z,16.10
2023-04-23T18:15:12.347Z,16.00
2023-04-23T18:17:40.851Z,16.00
2023-04-23T18:20:10.296Z,15.90
2023-04-23T18:22:39.434Z,15.80
2023-04-23T18:25:10.077Z,15.60
2023-04-23T18:27:39.976Z,15.50
2023-04-23T18:30:09.632Z,15.40
2023-04-23T18:32:43.160Z,15.30
2023-04-23T18:35:11.760Z,15.30
2023-04-23T18:37:44.725Z,15.10
2023-04-23T18:40:13.176Z,15.00
2023-04-23T18:42:43.165Z,14.90
2023-04-23T18:45:12.400Z,14.80
2023-04-23T18:47:50.635Z,14.80
2023-04-23T18:50:38.031Z,14.60
2023-04-23T18:53:06.526Z,14.50
2023-04-23T18:55:34.762Z,14.40
2023-04-23T18:58:04.474Z,14.30
2023-04-23T19:00:32.912Z,14.20
2023-04-23T19:03:06.526Z,14.20
2023-04-23T19:05:37.673Z,14.10
2023-04-23T19:08:06.016Z,14.00
2023-04-23T19:10:38.757Z,14.00
2023-04-23T19:13:09.006Z,14.10
2023-04-23T19:15:37.292Z,14.00
2023-04-23T19:18:06.301Z,13.90
2023-04-23T19:20:36.128Z,13.80
2023-04-23T19:23:05.197Z,13.90
2023-04-23T19:25:33.403Z,13.90
2023-04-23T19:28:01.732Z,13.80
2023-04-23T19:30:32.355Z,13.80
2023-04-23T19:33:00.646Z,13.80
2023-04-23T19:35:29.039Z,13.70
2023-04-23T19:37:57.396Z,13.60
2023-04-23T19:40:25.737Z,13.70
2023-04-23T19:42:54.241Z,13.60
2023-04-23T19:45:22.988Z,13.70
2023-04-23T19:47:52.893Z,13.60
2023-04-23T19:50:21.484Z,13.60
2023-04-23T19:52:50.324Z,13.50
2023-04-23T19:55:22.168Z,13.40
2023-04-23T19:57:50.464Z,13.30
2023-04-23T20:00:23.756Z,13.30
2023-04-23T20:02:55.467Z,13.30
2023-04-23T20:05:23.896Z,13.30
2023-04-23T20:07:52.842Z,13.30
2023-04-23T20:10:21.290Z,13.20
2023-04-23T20:12:49.533Z,13.10
2023-04-23T20:15:17.730Z,13.00
2023-04-23T20:17:46.161Z,12.90
2023-04-23T20:20:15.849Z,12.80
2023-04-23T20:22:44.146Z,12.70
2023-04-23T20:25:13.340Z,12.70
2023-04-23T20:27:41.767Z,12.70
2023-04-23T20:30:12.250Z,12.60
2023-04-23T20:32:40.575Z,12.70
2023-04-23T20:35:09.612Z,12.60
2023-04-23T20:37:39.356Z,12.60
2023-04-23T20:40:10.661Z,12.60
2023-04-23T20:42:39.749Z,12.50
2023-04-23T20:45:09.581Z,12.60
2023-04-23T20:47:37.961Z,12.60
2023-04-23T20:50:07.217Z,12.60
2023-04-23T20:52:36.191Z,12.50
2023-04-23T20:55:06.398Z,12.40
2023-04-23T20:57:37.014Z,12.40
2023-04-23T21:00:11.676Z,12.40
2023-04-23T21:02:40.397Z,12.40
2023-04-23T21:05:12.558Z,12.40
2023-04-23T21:07:40.869Z,12.40
2023-04-23T21:10:11.699Z,12.40
2023-04-23T21:12:40.318Z,12.50
2023-04-23T21:15:12.616Z,12.40
2023-04-23T21:17:41.117Z,12.30
2023-04-23T21:20:10.689Z,12.30
2023-04-23T21:22:38.926Z,12.30
2023-04-23T21:25:08.063Z,12.30
2023-04-23T21:27:38.184Z,12.40
2023-04-23T21:30:11.090Z,12.40
2023-04-23T21:32:39.566Z,12.40
2023-04-23T21:35:08.725Z,12.30
2023-04-23T21:37:38.043Z,12.40
2023-04-23T21:40:07.942Z,12.30
2023-04-23T21:42:37.844Z,12.20
2023-04-23T21:45:07.319Z,12.20
2023-04-23T21:47:35.630Z,12.20
2023-04-23T21:50:05.248Z,12.10
2023-04-23T21:52:33.874Z,12.00
2023-04-23T21:55:02.299Z,11.90
2023-04-23T21:57:30.522Z,11.80
2023-04-23T22:00:00.198Z,11.80
2023-04-23T22:02:28.750Z,11.70
2023-04-23T22:04:57.647Z,11.60
2023-04-23T22:07:26.903Z,11.60
2023-04-23T22:09:57.169Z,11.40
2023-04-23T22:12:25.807Z,11.50
2023-04-23T22:14:54.015Z,11.50
2023-04-23T22:17:25.876Z,11.40
2023-04-23T22:19:54.447Z,11.30
2023-04-23T22:22:22.613Z,11.30
2023-04-23T22:24:50.822Z,11.30
2023-04-23T22:27:19.195Z,11.20
2023-04-23T22:29:47.449Z,11.20
2023-04-23T22:32:15.700Z,11.20
2023-04-23T22:34:45.509Z,11.20
2023-04-23T22:37:13.846Z,11.10
2023-04-23T22:39:42.295Z,11.10
2023-04-23T22:42:10.672Z,11.20
2023-04-23T22:44:39.036Z,11.50
2023-04-23T22:47:07.368Z,11.60
2023-04-23T22:49:35.907Z,11.70
2023-04-23T22:52:05.728Z,11.60
2023-04-23T22:54:33.908Z,11.70
2023-04-23T22:57:02.219Z,11.60
2023-04-23T22:59:31.236Z,11.50
2023-04-23T23:01:59.662Z,11.50
2023-04-23T23:04:28.048Z,11.50
2023-04-23T23:06:56.417Z,11.50
2023-04-23T23:09:26.071Z,11.50
2023-04-23T23:11:54.339Z,11.40
2023-04-23T23:14:23.228Z,11.30
2023-04-23T23:16:51.505Z,11.30
2023-04-23T23:19:19.655Z,11.20
2023-04-23T23:21:47.860Z,11.30
2023-04-23T23:24:16.314Z,11.30
2023-04-23T23:26:46.731Z,11.10
2023-04-23T23:29:14.926Z,11.10
2023-04-23T23:31:43.342Z,11.20
2023-04-23T23:34:11.571Z,11.10
2023-04-23T23:36:39.808Z,10.80
2023-04-23T23:39:08.114Z,11.00
2023-04-23T23:41:36.342Z,10.80
2023-04-23T23:44:05.866Z,10.70
2023-04-23T23:46:34.145Z,10.70
2023-04-23T23:49:02.582Z,10.60
2023-04-23T23:51:31.124Z,10.60
2023-04-23T23:53:59.372Z,10.60
2023-04-23T23:56:27.721Z,10.50
2023-04-23T23:58:55.951Z,10.40
